createdAt,value
2022-12-22T00:00:41.527Z,979.14
2022-12-22T00:01:48.015Z,979.14
2022-12-22T00:02:42.634Z,979.15
2022-12-22T00:03:41.602Z,979.12
2022-12-22T00:04:41.484Z,979.07
2022-12-22T00:05:41.495Z,979.07
2022-12-22T00:06:41.460Z,978.98
2022-12-22T00:07:41.467Z,979.01
2022-12-22T00:08:41.438Z,979.00
2022-12-22T00:09:41.431Z,978.94
2022-12-22T00:10:41.410Z,978.92
2022-12-22T00:11:41.400Z,979.00
2022-12-22T00:12:41.401Z,978.91
2022-12-22T00:13:41.389Z,978.92
2022-12-22T00:14:41.372Z,979.05
2022-12-22T00:15:41.361Z,978.94
2022-12-22T00:16:41.397Z,978.99
2022-12-22T00:17:41.347Z,979.03
2022-12-22T00:18:41.332Z,978.98
2022-12-22T00:19:41.317Z,979.03
2022-12-22T00:20:41.328Z,978.97
2022-12-22T00:21:41.293Z,978.95
2022-12-22T00:22:41.301Z,978.94
2022-12-22T00:23:41.276Z,978.97
2022-12-22T00:24:41.264Z,978.92
2022-12-22T00:25:41.263Z,978.91
2022-12-22T00:26:41.244Z,978.93
2022-12-22T00:27:45.352Z,978.92
2022-12-22T00:28:41.253Z,978.95
2022-12-22T00:29:41.208Z,978.94
2022-12-22T00:30:41.222Z,978.82
2022-12-22T00:31:41.201Z,978.90
2022-12-22T00:32:41.184Z,978.82
2022-12-22T00:33:41.196Z,978.79
2022-12-22T00:34:41.162Z,978.86
2022-12-22T00:35:41.185Z,978.86
2022-12-22T00:36:41.154Z,978.84
2022-12-22T00:37:41.133Z,978.89
2022-12-22T00:38:41.136Z,978.91
2022-12-22T00:39:41.114Z,978.96
2022-12-22T00:40:41.101Z,978.94
2022-12-22T00:41:41.077Z,978.98
2022-12-22T00:42:41.079Z,978.96
2022-12-22T00:43:41.076Z,978.92
2022-12-22T00:44:41.056Z,978.92
2022-12-22T00:45:41.064Z,978.90
2022-12-22T00:46:41.027Z,978.87
2022-12-22T00:47:41.034Z,978.88
2022-12-22T00:48:41.008Z,978.93
2022-12-22T00:49:40.999Z,978.91
2022-12-22T00:50:40.989Z,978.95
2022-12-22T00:51:41.006Z,978.97
2022-12-22T00:52:40.967Z,978.83
2022-12-22T00:53:40.962Z,978.93
2022-12-22T00:54:40.954Z,978.86
2022-12-22T00:55:40.930Z,978.88
2022-12-22T00:56:40.929Z,978.87
2022-12-22T00:57:40.919Z,978.83
2022-12-22T00:58:40.899Z,978.85
2022-12-22T00:59:40.935Z,978.87
2022-12-22T01:00:40.900Z,978.86
2022-12-22T01:01:40.935Z,978.81
2022-12-22T01:02:40.998Z,978.80
2022-12-22T01:03:40.912Z,978.82
2022-12-22T01:04:40.841Z,978.84
2022-12-22T01:05:40.840Z,978.75
2022-12-22T01:06:40.821Z,978.73
2022-12-22T01:07:40.822Z,978.73
2022-12-22T01:08:40.811Z,978.68
2022-12-22T01:09:40.797Z,978.67
2022-12-22T01:10:40.812Z,978.67
2022-12-22T01:11:40.774Z,978.69
2022-12-22T01:12:40.753Z,978.72
2022-12-22T01:13:40.743Z,978.74
2022-12-22T01:14:40.732Z,978.69
2022-12-22T01:15:40.790Z,978.71
2022-12-22T01:16:40.713Z,978.67
2022-12-22T01:17:40.711Z,978.71
2022-12-22T01:18:40.695Z,978.69
2022-12-22T01:19:40.685Z,978.67
2022-12-22T01:20:40.663Z,978.71
2022-12-22T01:21:40.653Z,978.74
2022-12-22T01:22:40.664Z,978.73
2022-12-22T01:23:40.633Z,978.74
2022-12-22T01:24:40.623Z,978.79
2022-12-22T01:25:40.615Z,978.79
2022-12-22T01:26:40.610Z,978.78
2022-12-22T01:27:40.585Z,978.80
2022-12-22T01:28:40.596Z,978.82
2022-12-22T01:29:40.587Z,978.86
2022-12-22T01:30:40.657Z,978.72
2022-12-22T01:31:40.561Z,978.73
2022-12-22T01:32:40.549Z,978.70
2022-12-22T01:33:40.539Z,978.74
2022-12-22T01:34:40.540Z,978.68
2022-12-22T01:35:40.505Z,978.69
2022-12-22T01:36:40.506Z,978.68
2022-12-22T01:37:40.489Z,978.68
2022-12-22T01:38:40.488Z,978.64
2022-12-22T01:39:40.475Z,978.60
2022-12-22T01:40:40.456Z,978.62
2022-12-22T01:41:40.446Z,978.52
2022-12-22T01:42:40.437Z,978.50
2022-12-22T01:43:40.418Z,978.53
2022-12-22T01:44:40.433Z,978.53
2022-12-22T01:45:40.397Z,978.47
2022-12-22T01:46:40.422Z,978.51
2022-12-22T01:47:40.389Z,978.46
2022-12-22T01:48:40.367Z,978.45
2022-12-22T01:49:40.348Z,978.40
2022-12-22T01:50:40.347Z,978.40
2022-12-22T01:51:40.351Z,978.33
2022-12-22T01:52:40.329Z,978.41
2022-12-22T01:53:40.329Z,978.44
2022-12-22T01:54:40.310Z,978.40
2022-12-22T01:55:40.309Z,978.29
2022-12-22T01:56:40.309Z,978.37
2022-12-22T01:57:40.270Z,978.29
2022-12-22T01:58:40.260Z,978.35
2022-12-22T01:59:40.306Z,978.27
2022-12-22T02:00:40.238Z,978.25
2022-12-22T02:01:40.384Z,978.23
2022-12-22T02:02:40.386Z,978.28
2022-12-22T02:03:40.290Z,978.23
2022-12-22T02:04:40.216Z,978.18
2022-12-22T02:05:40.202Z,978.22
2022-12-22T02:06:40.181Z,978.21
2022-12-22T02:07:40.161Z,978.23
2022-12-22T02:08:40.169Z,978.23
2022-12-22T02:09:40.141Z,978.26
2022-12-22T02:10:40.135Z,978.28
2022-12-22T02:11:40.132Z,978.26
2022-12-22T02:12:40.134Z,978.21
2022-12-22T02:13:40.105Z,978.22
2022-12-22T02:14:40.093Z,978.25
2022-12-22T02:15:40.140Z,978.18
2022-12-22T02:16:40.074Z,978.19
2022-12-22T02:17:40.061Z,978.27
2022-12-22T02:18:40.064Z,978.16
2022-12-22T02:19:40.032Z,978.16
2022-12-22T02:20:40.034Z,978.20
2022-12-22T02:21:40.025Z,978.22
2022-12-22T02:22:40.027Z,978.17
2022-12-22T02:23:39.993Z,978.17
2022-12-22T02:24:39.987Z,978.10
2022-12-22T02:25:40.003Z,978.15
2022-12-22T02:26:39.972Z,978.24
2022-12-22T02:27:39.954Z,978.25
2022-12-22T02:28:39.979Z,978.35
2022-12-22T02:29:39.957Z,978.32
2022-12-22T02:30:39.914Z,978.36
2022-12-22T02:31:39.947Z,978.27
2022-12-22T02:32:39.904Z,978.31
2022-12-22T02:33:39.910Z,978.39
2022-12-22T02:34:39.888Z,978.39
2022-12-22T02:35:39.905Z,978.31
2022-12-22T02:36:39.888Z,978.29
2022-12-22T02:37:39.878Z,978.41
2022-12-22T02:38:39.827Z,978.34
2022-12-22T02:39:39.825Z,978.41
2022-12-22T02:40:41.757Z,978.39
2022-12-22T02:41:39.804Z,978.31
2022-12-22T02:42:39.817Z,978.18
2022-12-22T02:43:39.781Z,978.17
2022-12-22T02:44:39.789Z,978.20
2022-12-22T02:45:39.784Z,978.20
2022-12-22T02:46:39.827Z,978.24
2022-12-22T02:47:39.803Z,978.25
2022-12-22T02:48:39.740Z,978.33
2022-12-22T02:49:39.744Z,978.25
2022-12-22T02:50:39.720Z,978.16
2022-12-22T02:51:39.729Z,978.15
2022-12-22T02:52:39.667Z,978.14
2022-12-22T02:53:39.698Z,978.03
2022-12-22T02:54:39.679Z,978.07
2022-12-22T02:55:39.688Z,978.08
2022-12-22T02:56:39.631Z,977.99
2022-12-22T02:57:39.629Z,977.96
2022-12-22T02:58:39.658Z,977.94
2022-12-22T02:59:39.619Z,977.95
2022-12-22T03:00:39.597Z,978.01
2022-12-22T03:01:39.735Z,977.97
2022-12-22T03:02:39.743Z,978.03
2022-12-22T03:03:39.700Z,977.96
2022-12-22T03:04:39.560Z,978.04
2022-12-22T03:05:39.549Z,978.10
2022-12-22T03:06:39.564Z,978.05
2022-12-22T03:07:39.554Z,978.02
2022-12-22T03:08:39.529Z,977.98
2022-12-22T03:09:39.516Z,977.98
2022-12-22T03:10:39.485Z,978.02
2022-12-22T03:11:39.482Z,977.97
2022-12-22T03:12:39.485Z,977.98
2022-12-22T03:13:39.528Z,977.98
2022-12-22T03:14:39.441Z,977.96
2022-12-22T03:15:39.468Z,977.98
2022-12-22T03:16:39.515Z,977.90
2022-12-22T03:17:39.423Z,977.85
2022-12-22T03:18:39.414Z,977.87
2022-12-22T03:19:39.410Z,977.78
2022-12-22T03:20:39.389Z,977.90
2022-12-22T03:21:39.385Z,977.84
2022-12-22T03:22:39.372Z,977.82
2022-12-22T03:23:39.356Z,977.77
2022-12-22T03:24:39.354Z,977.76
2022-12-22T03:25:39.350Z,977.68
2022-12-22T03:26:39.347Z,977.60
2022-12-22T03:27:39.335Z,977.45
2022-12-22T03:28:39.315Z,977.50
2022-12-22T03:29:39.308Z,977.48
2022-12-22T03:30:39.299Z,977.55
2022-12-22T03:31:39.319Z,977.47
2022-12-22T03:32:39.275Z,977.50
2022-12-22T03:33:39.266Z,977.53
2022-12-22T03:34:39.240Z,977.44
2022-12-22T03:35:39.236Z,977.43
2022-12-22T03:36:39.257Z,977.34
2022-12-22T03:37:39.206Z,977.35
2022-12-22T03:38:39.216Z,977.36
2022-12-22T03:39:39.184Z,977.42
2022-12-22T03:40:39.167Z,977.27
2022-12-22T03:41:39.155Z,977.21
2022-12-22T03:42:39.185Z,977.19
2022-12-22T03:43:39.162Z,977.18
2022-12-22T03:44:39.136Z,977.18
2022-12-22T03:45:39.113Z,977.30
2022-12-22T03:46:39.179Z,977.30
2022-12-22T03:47:39.092Z,977.22
2022-12-22T03:48:39.108Z,977.33
2022-12-22T03:49:39.086Z,977.24
2022-12-22T03:50:39.070Z,977.26
2022-12-22T03:51:39.059Z,977.22
2022-12-22T03:52:39.040Z,977.29
2022-12-22T03:53:39.057Z,977.26
2022-12-22T03:54:39.024Z,977.31
2022-12-22T03:55:39.025Z,977.28
2022-12-22T03:56:39.018Z,977.24
2022-12-22T03:57:38.989Z,977.30
2022-12-22T03:58:39.020Z,977.26
2022-12-22T03:59:38.961Z,977.25
2022-12-22T04:00:38.986Z,977.27
2022-12-22T04:01:39.210Z,977.30
2022-12-22T04:02:39.054Z,977.32
2022-12-22T04:03:38.938Z,977.29
2022-12-22T04:04:38.939Z,977.22
2022-12-22T04:05:38.914Z,977.29
2022-12-22T04:06:38.913Z,977.26
2022-12-22T04:07:38.879Z,977.16
2022-12-22T04:08:38.911Z,977.21
2022-12-22T04:09:38.880Z,977.20
2022-12-22T04:10:38.865Z,977.20
2022-12-22T04:11:38.831Z,977.17
2022-12-22T04:12:38.851Z,977.17
2022-12-22T04:13:38.811Z,977.06
2022-12-22T04:14:38.825Z,977.07
2022-12-22T04:15:38.807Z,977.15
2022-12-22T04:16:38.824Z,977.14
2022-12-22T04:17:38.772Z,977.15
2022-12-22T04:18:38.771Z,977.08
2022-12-22T04:19:38.787Z,977.10
2022-12-22T04:20:38.744Z,977.06
2022-12-22T04:21:38.740Z,977.12
2022-12-22T04:22:38.747Z,977.08
2022-12-22T04:23:38.724Z,977.19
2022-12-22T04:24:38.718Z,977.06
2022-12-22T04:25:38.683Z,977.08
2022-12-22T04:26:38.685Z,977.12
2022-12-22T04:27:38.668Z,977.05
2022-12-22T04:28:38.712Z,977.05
2022-12-22T04:29:38.678Z,977.06
2022-12-22T04:30:38.637Z,977.03
2022-12-22T04:31:38.649Z,976.97
2022-12-22T04:32:38.650Z,976.99
2022-12-22T04:33:38.604Z,976.93
2022-12-22T04:34:38.622Z,976.92
2022-12-22T04:35:38.616Z,976.89
2022-12-22T04:36:38.638Z,976.88
2022-12-22T04:37:38.560Z,976.91
2022-12-22T04:38:38.568Z,976.86
2022-12-22T04:39:38.554Z,976.85
2022-12-22T04:40:38.538Z,976.87
2022-12-22T04:41:38.524Z,976.83
2022-12-22T04:42:38.522Z,976.84
2022-12-22T04:43:38.532Z,976.79
2022-12-22T04:44:38.510Z,976.73
2022-12-22T04:45:38.582Z,976.83
2022-12-22T04:46:38.469Z,976.75
2022-12-22T04:47:38.458Z,976.81
2022-12-22T04:48:38.480Z,976.79
2022-12-22T04:49:38.448Z,976.80
2022-12-22T04:50:38.417Z,976.81
2022-12-22T04:51:38.419Z,976.82
2022-12-22T04:52:38.401Z,976.80
2022-12-22T04:53:38.420Z,976.81
2022-12-22T04:54:38.380Z,976.75
2022-12-22T04:55:38.377Z,976.80
2022-12-22T04:56:38.379Z,976.77
2022-12-22T04:57:40.900Z,976.80
2022-12-22T04:58:38.359Z,976.82
2022-12-22T04:59:38.329Z,976.74
2022-12-22T05:00:38.343Z,976.74
2022-12-22T05:01:38.362Z,976.76
2022-12-22T05:02:38.502Z,976.73
2022-12-22T05:03:38.466Z,976.69
2022-12-22T05:04:38.272Z,976.73
2022-12-22T05:05:38.280Z,976.81
2022-12-22T05:06:38.284Z,976.80
2022-12-22T05:07:38.253Z,976.75
2022-12-22T05:08:39.403Z,976.76
2022-12-22T05:09:38.223Z,976.80
2022-12-22T05:10:38.260Z,976.64
2022-12-22T05:11:38.255Z,976.69
2022-12-22T05:12:38.227Z,976.70
2022-12-22T05:13:38.201Z,976.74
2022-12-22T05:14:38.233Z,976.82
2022-12-22T05:15:38.219Z,976.75
2022-12-22T05:16:38.179Z,976.72
2022-12-22T05:17:38.140Z,976.83
2022-12-22T05:18:38.138Z,976.75
2022-12-22T05:19:38.122Z,976.83
2022-12-22T05:20:38.135Z,976.81
2022-12-22T05:21:38.091Z,976.75
2022-12-22T05:22:38.108Z,976.70
2022-12-22T05:23:38.065Z,976.70
2022-12-22T05:24:38.095Z,976.70
2022-12-22T05:25:38.085Z,976.69
2022-12-22T05:26:38.075Z,976.68
2022-12-22T05:27:38.048Z,976.72
2022-12-22T05:28:38.037Z,976.69
2022-12-22T05:29:38.017Z,976.77
2022-12-22T05:30:38.091Z,976.70
2022-12-22T05:31:41.842Z,976.66
2022-12-22T05:32:39.089Z,976.66
2022-12-22T05:33:38.077Z,976.65
2022-12-22T05:34:37.993Z,976.63
2022-12-22T05:35:37.956Z,976.71
2022-12-22T05:36:37.956Z,976.79
2022-12-22T05:37:37.944Z,976.85
2022-12-22T05:38:37.955Z,976.73
2022-12-22T05:39:37.902Z,976.73
2022-12-22T05:40:37.936Z,976.70
2022-12-22T05:41:37.886Z,976.68
2022-12-22T05:42:37.874Z,976.77
2022-12-22T05:43:37.869Z,976.72
2022-12-22T05:44:37.868Z,976.67
2022-12-22T05:45:38.527Z,976.73
2022-12-22T05:46:37.915Z,976.78
2022-12-22T05:47:38.930Z,976.71
2022-12-22T05:48:39.407Z,976.65
2022-12-22T05:49:38.526Z,976.69
2022-12-22T05:50:37.857Z,976.71
2022-12-22T05:51:38.071Z,976.68
2022-12-22T05:52:37.825Z,976.75
2022-12-22T05:53:38.886Z,976.70
2022-12-22T05:54:37.776Z,976.68
2022-12-22T05:55:38.451Z,976.71
2022-12-22T05:56:37.768Z,976.73
2022-12-22T05:57:38.439Z,976.61
2022-12-22T05:58:37.723Z,976.56
2022-12-22T05:59:37.729Z,976.52
2022-12-22T06:00:37.705Z,976.49
2022-12-22T06:01:37.737Z,976.55
2022-12-22T06:02:37.806Z,976.47
2022-12-22T06:03:37.808Z,976.48
2022-12-22T06:04:37.651Z,976.52
2022-12-22T06:05:37.622Z,976.50
2022-12-22T06:06:37.640Z,976.37
2022-12-22T06:07:37.621Z,976.48
2022-12-22T06:08:37.641Z,976.54
2022-12-22T06:09:37.582Z,976.50
2022-12-22T06:10:37.594Z,976.51
2022-12-22T06:11:37.560Z,976.56
2022-12-22T06:12:37.543Z,976.52
2022-12-22T06:13:37.532Z,976.57
2022-12-22T06:14:37.565Z,976.57
2022-12-22T06:15:37.559Z,976.59
2022-12-22T06:16:38.276Z,976.62
2022-12-22T06:17:43.900Z,976.62
2022-12-22T06:18:38.491Z,976.58
2022-12-22T06:19:37.514Z,976.46
2022-12-22T06:20:37.477Z,976.50
2022-12-22T06:21:37.487Z,976.51
2022-12-22T06:22:37.458Z,976.49
2022-12-22T06:23:37.443Z,976.51
2022-12-22T06:24:37.448Z,976.57
2022-12-22T06:25:37.415Z,976.59
2022-12-22T06:26:37.442Z,976.58
2022-12-22T06:27:37.400Z,976.52
2022-12-22T06:28:37.384Z,976.56
2022-12-22T06:29:37.365Z,976.53
2022-12-22T06:30:37.370Z,976.48
2022-12-22T06:31:37.409Z,976.65
2022-12-22T06:32:37.389Z,976.55
2022-12-22T06:33:37.316Z,976.54
2022-12-22T06:34:37.337Z,976.64
2022-12-22T06:35:37.318Z,976.57
2022-12-22T06:36:37.320Z,976.54
2022-12-22T06:37:37.311Z,976.54
2022-12-22T06:38:37.290Z,976.58
2022-12-22T06:39:37.277Z,976.66
2022-12-22T06:40:37.262Z,976.60
2022-12-22T06:41:37.248Z,976.57
2022-12-22T06:42:37.227Z,976.63
2022-12-22T06:43:37.268Z,976.51
2022-12-22T06:44:37.232Z,976.58
2022-12-22T06:45:37.209Z,976.55
2022-12-22T06:46:37.220Z,976.50
2022-12-22T06:47:37.189Z,976.49
2022-12-22T06:48:37.181Z,976.55
2022-12-22T06:49:37.170Z,976.56
2022-12-22T06:50:37.169Z,976.51
2022-12-22T06:51:37.128Z,976.50
2022-12-22T06:52:37.130Z,976.56
2022-12-22T06:53:37.117Z,976.62
2022-12-22T06:54:37.123Z,976.66
2022-12-22T06:55:37.078Z,976.59
2022-12-22T06:56:37.107Z,976.61
2022-12-22T06:57:37.086Z,976.60
2022-12-22T06:58:37.079Z,976.57
2022-12-22T06:59:37.049Z,976.67
2022-12-22T07:00:37.061Z,976.66
2022-12-22T07:01:37.162Z,976.54
2022-12-22T07:02:37.263Z,976.61
2022-12-22T07:03:37.100Z,976.52
2022-12-22T07:04:37.009Z,976.72
2022-12-22T07:05:37.003Z,976.56
2022-12-22T07:06:36.988Z,976.65
2022-12-22T07:07:36.972Z,976.64
2022-12-22T07:08:36.963Z,976.94
2022-12-22T07:09:36.938Z,976.72
2022-12-22T07:10:36.937Z,976.80
2022-12-22T07:11:36.919Z,976.79
2022-12-22T07:12:36.925Z,976.80
2022-12-22T07:13:36.913Z,976.84
2022-12-22T07:14:36.917Z,977.25
2022-12-22T07:15:36.899Z,976.92
2022-12-22T07:16:36.911Z,976.97
2022-12-22T07:17:36.863Z,977.09
2022-12-22T07:18:36.845Z,976.87
2022-12-22T07:19:36.831Z,976.90
2022-12-22T07:20:36.826Z,976.86
2022-12-22T07:21:36.825Z,976.79
2022-12-22T07:22:36.809Z,976.80
2022-12-22T07:23:36.815Z,976.84
2022-12-22T07:24:36.787Z,976.78
2022-12-22T07:25:36.783Z,976.86
2022-12-22T07:26:36.781Z,976.84
2022-12-22T07:27:36.766Z,976.92
2022-12-22T07:28:36.745Z,976.82
2022-12-22T07:29:36.749Z,976.85
2022-12-22T07:30:36.723Z,976.82
2022-12-22T07:31:36.768Z,976.89
2022-12-22T07:32:36.706Z,976.94
2022-12-22T07:33:36.714Z,976.95
2022-12-22T07:34:36.677Z,977.02
2022-12-22T07:35:36.687Z,976.93
2022-12-22T07:36:36.710Z,976.93
2022-12-22T07:37:36.664Z,976.87
2022-12-22T07:38:36.659Z,976.97
2022-12-22T07:39:36.639Z,977.02
2022-12-22T07:40:41.366Z,976.92
2022-12-22T07:41:37.594Z,976.93
2022-12-22T07:42:36.620Z,976.97
2022-12-22T07:43:36.587Z,976.88
2022-12-22T07:44:36.570Z,976.96
2022-12-22T07:45:36.711Z,976.98
2022-12-22T07:46:36.674Z,976.97
2022-12-22T07:47:36.549Z,976.95
2022-12-22T07:48:36.517Z,977.26
2022-12-22T07:49:36.519Z,977.00
2022-12-22T07:50:36.516Z,977.15
2022-12-22T07:51:36.492Z,977.47
2022-12-22T07:52:36.500Z,977.16
2022-12-22T07:53:36.502Z,977.34
2022-12-22T07:54:41.469Z,977.11
2022-12-22T07:55:37.511Z,977.12
2022-12-22T07:56:36.431Z,977.10
2022-12-22T07:57:36.477Z,976.94
2022-12-22T07:58:36.421Z,976.93
2022-12-22T07:59:36.422Z,976.80
2022-12-22T08:00:36.439Z,976.90
2022-12-22T08:01:36.507Z,976.82
2022-12-22T08:02:39.085Z,976.85
2022-12-22T08:03:36.403Z,976.82
2022-12-22T08:04:36.398Z,976.79
2022-12-22T08:05:36.361Z,976.84
2022-12-22T08:06:36.349Z,977.05
2022-12-22T08:07:36.334Z,977.09
2022-12-22T08:08:36.330Z,977.30
2022-12-22T08:09:36.314Z,977.06
2022-12-22T08:10:36.315Z,977.10
2022-12-22T08:11:36.328Z,977.18
2022-12-22T08:12:36.305Z,977.11
2022-12-22T08:13:36.293Z,977.08
2022-12-22T08:14:36.251Z,977.11
2022-12-22T08:15:36.245Z,977.02
2022-12-22T08:16:36.307Z,977.02
2022-12-22T08:17:36.248Z,977.03
2022-12-22T08:18:36.204Z,977.02
2022-12-22T08:19:36.196Z,977.05
2022-12-22T08:20:36.225Z,976.93
2022-12-22T08:21:36.189Z,977.00
2022-12-22T08:22:36.175Z,977.10
2022-12-22T08:23:36.159Z,977.15
2022-12-22T08:24:36.156Z,977.22
2022-12-22T08:25:36.150Z,977.10
2022-12-22T08:26:36.166Z,977.13
2022-12-22T08:27:36.117Z,977.06
2022-12-22T08:28:36.097Z,977.10
2022-12-22T08:29:36.107Z,977.07
2022-12-22T08:30:36.092Z,977.09
2022-12-22T08:31:36.120Z,977.13
2022-12-22T08:32:36.066Z,977.06
2022-12-22T08:33:36.045Z,977.07
2022-12-22T08:34:36.051Z,977.05
2022-12-22T08:35:36.039Z,977.01
2022-12-22T08:36:36.007Z,976.96
2022-12-22T08:37:36.029Z,976.99
2022-12-22T08:38:36.000Z,977.08
2022-12-22T08:39:36.010Z,977.12
2022-12-22T08:40:35.997Z,977.07
2022-12-22T08:41:35.961Z,977.10
2022-12-22T08:42:35.958Z,977.08
2022-12-22T08:43:35.938Z,977.09
2022-12-22T08:44:35.950Z,977.13
2022-12-22T08:45:35.938Z,977.12
2022-12-22T08:46:35.939Z,977.14
2022-12-22T08:47:35.980Z,977.19
2022-12-22T08:48:35.880Z,977.11
2022-12-22T08:49:35.879Z,977.13
2022-12-22T08:50:35.880Z,977.08
2022-12-22T08:51:35.862Z,977.11
2022-12-22T08:52:35.859Z,977.10
2022-12-22T08:54:04.056Z,977.16
2022-12-22T08:54:36.819Z,977.16
2022-12-22T08:55:35.812Z,977.12
2022-12-22T08:56:35.801Z,977.09
2022-12-22T08:57:35.792Z,977.04
2022-12-22T08:58:35.806Z,977.09
2022-12-22T08:59:35.773Z,976.96
2022-12-22T09:00:35.799Z,977.00
2022-12-22T09:01:35.850Z,976.88
2022-12-22T09:02:35.950Z,976.95
2022-12-22T09:03:35.759Z,976.85
2022-12-22T09:04:35.725Z,976.89
2022-12-22T09:05:35.713Z,976.93
2022-12-22T09:06:40.889Z,977.07
2022-12-22T09:07:36.688Z,977.05
2022-12-22T09:08:35.684Z,977.10
2022-12-22T09:09:35.734Z,976.88
2022-12-22T09:10:35.643Z,977.04
2022-12-22T09:11:35.663Z,977.06
2022-12-22T09:12:35.634Z,977.07
2022-12-22T09:13:35.634Z,977.14
2022-12-22T09:14:35.617Z,977.10
2022-12-22T09:15:35.622Z,977.09
2022-12-22T09:16:35.690Z,977.13
2022-12-22T09:17:35.575Z,977.14
2022-12-22T09:18:35.591Z,977.16
2022-12-22T09:19:35.594Z,977.26
2022-12-22T09:20:35.554Z,977.28
2022-12-22T09:21:35.562Z,977.29
2022-12-22T09:22:35.552Z,977.27
2022-12-22T09:23:35.556Z,977.27
2022-12-22T09:24:35.574Z,977.29
2022-12-22T09:25:35.496Z,977.24
2022-12-22T09:26:35.486Z,977.25
2022-12-22T09:27:35.497Z,977.22
2022-12-22T09:28:35.466Z,977.28
2022-12-22T09:29:35.466Z,977.24
2022-12-22T09:30:35.468Z,977.24
2022-12-22T09:31:35.476Z,977.36
2022-12-22T09:32:35.463Z,977.30
2022-12-22T09:33:35.419Z,977.28
2022-12-22T09:34:35.408Z,977.35
2022-12-22T09:35:35.391Z,977.24
2022-12-22T09:36:35.379Z,977.35
2022-12-22T09:37:35.400Z,977.38
2022-12-22T09:38:35.368Z,977.43
2022-12-22T09:39:36.061Z,977.42
2022-12-22T09:40:35.359Z,977.73
2022-12-22T09:41:35.346Z,977.45
2022-12-22T09:42:35.330Z,977.54
2022-12-22T09:43:35.319Z,977.52
2022-12-22T09:44:35.302Z,977.57
2022-12-22T09:45:35.345Z,977.49
2022-12-22T09:46:35.275Z,977.41
2022-12-22T09:47:35.269Z,977.41
2022-12-22T09:48:35.247Z,977.41
2022-12-22T09:49:35.259Z,977.35
2022-12-22T09:50:35.220Z,977.34
2022-12-22T09:51:35.222Z,977.31
2022-12-22T09:52:35.220Z,977.34
2022-12-22T09:53:35.191Z,977.31
2022-12-22T09:54:35.186Z,977.43
2022-12-22T09:55:35.191Z,977.39
2022-12-22T09:56:35.172Z,977.24
2022-12-22T09:57:35.162Z,977.32
2022-12-22T09:58:35.141Z,977.31
2022-12-22T09:59:35.144Z,977.36
2022-12-22T10:00:35.136Z,977.35
2022-12-22T10:01:35.194Z,977.35
2022-12-22T10:02:35.186Z,977.38
2022-12-22T10:03:35.160Z,977.31
2022-12-22T10:04:35.094Z,977.39
2022-12-22T10:05:35.081Z,977.39
2022-12-22T10:06:35.053Z,977.39
2022-12-22T10:07:35.063Z,977.40
2022-12-22T10:08:35.066Z,977.47
2022-12-22T10:09:51.728Z,977.45
2022-12-22T10:10:36.004Z,977.45
2022-12-22T10:11:35.024Z,977.41
2022-12-22T10:12:34.995Z,977.44
2022-12-22T10:13:35.018Z,977.41
2022-12-22T10:14:35.025Z,977.49
2022-12-22T10:15:34.985Z,977.53
2022-12-22T10:16:35.012Z,977.54
2022-12-22T10:17:34.935Z,977.87
2022-12-22T10:18:34.952Z,977.69
2022-12-22T10:19:34.923Z,977.65
2022-12-22T10:20:34.931Z,977.72
2022-12-22T10:21:34.929Z,977.71
2022-12-22T10:22:34.893Z,977.67
2022-12-22T10:23:34.876Z,977.77
2022-12-22T10:24:34.869Z,977.77
2022-12-22T10:26:00.635Z,977.68
2022-12-22T10:26:35.856Z,977.74
2022-12-22T10:27:37.293Z,977.69
2022-12-22T10:28:35.832Z,977.79
2022-12-22T10:29:34.867Z,977.78
2022-12-22T10:30:34.816Z,977.85
2022-12-22T10:31:35.416Z,977.79
2022-12-22T10:32:34.797Z,977.93
2022-12-22T10:33:34.811Z,977.84
2022-12-22T10:34:34.779Z,978.03
2022-12-22T10:35:34.758Z,977.94
2022-12-22T10:36:34.763Z,977.89
2022-12-22T10:37:34.731Z,977.81
2022-12-22T10:38:34.727Z,977.92
2022-12-22T10:39:34.743Z,977.93
2022-12-22T10:40:34.701Z,977.82
2022-12-22T10:41:34.756Z,977.84
2022-12-22T10:42:34.693Z,977.86
2022-12-22T10:43:34.669Z,977.81
2022-12-22T10:44:34.671Z,977.81
2022-12-22T10:45:34.674Z,977.81
2022-12-22T10:46:34.707Z,977.90
2022-12-22T10:47:34.659Z,977.71
2022-12-22T10:48:34.617Z,977.73
2022-12-22T10:50:10.965Z,977.69
2022-12-22T10:51:10.940Z,977.74
2022-12-22T10:52:10.920Z,977.71
2022-12-22T10:53:10.950Z,977.64
2022-12-22T10:54:10.918Z,977.74
2022-12-22T10:55:10.926Z,977.71
2022-12-22T10:56:10.880Z,977.69
2022-12-22T10:57:10.866Z,977.68
2022-12-22T10:58:10.875Z,977.73
2022-12-22T10:59:11.782Z,977.63
2022-12-22T11:00:10.872Z,977.73
2022-12-22T11:01:10.857Z,977.60
2022-12-22T11:02:11.069Z,977.60
2022-12-22T11:03:10.943Z,977.52
2022-12-22T11:04:10.842Z,977.64
2022-12-22T11:05:10.802Z,977.49
2022-12-22T11:06:10.800Z,977.62
2022-12-22T11:07:10.765Z,977.57
2022-12-22T11:08:10.783Z,977.59
2022-12-22T11:09:32.688Z,977.58
2022-12-22T11:10:11.733Z,977.58
2022-12-22T11:11:10.761Z,977.60
2022-12-22T11:12:10.717Z,977.61
2022-12-22T11:13:10.724Z,977.65
2022-12-22T11:14:10.684Z,977.64
2022-12-22T11:15:10.693Z,977.61
2022-12-22T11:16:10.710Z,977.57
2022-12-22T11:17:10.697Z,977.59
2022-12-22T11:18:10.654Z,977.56
2022-12-22T11:19:10.642Z,977.55
2022-12-22T11:20:10.643Z,977.57
2022-12-22T11:21:10.625Z,977.52
2022-12-22T11:22:10.611Z,977.55
2022-12-22T11:23:10.599Z,977.72
2022-12-22T11:24:10.588Z,977.66
2022-12-22T11:25:10.593Z,977.61
2022-12-22T11:26:10.574Z,977.62
2022-12-22T11:27:10.557Z,977.59
2022-12-22T11:28:10.549Z,977.55
2022-12-22T11:29:10.535Z,977.60
2022-12-22T11:30:10.534Z,977.67
2022-12-22T11:31:10.593Z,977.62
2022-12-22T11:32:10.487Z,977.63
2022-12-22T11:33:10.495Z,977.62
2022-12-22T11:34:14.495Z,977.65
2022-12-22T11:35:11.476Z,977.58
2022-12-22T11:36:10.445Z,977.65
2022-12-22T11:37:10.435Z,977.62
2022-12-22T11:38:10.435Z,977.58
2022-12-22T11:39:10.444Z,977.65
2022-12-22T11:40:10.421Z,977.63
2022-12-22T11:41:10.408Z,977.71
2022-12-22T11:42:10.402Z,977.73
2022-12-22T11:43:10.379Z,977.78
2022-12-22T11:44:10.369Z,977.71
2022-12-22T11:45:10.360Z,977.72
2022-12-22T11:46:10.408Z,977.71
2022-12-22T11:47:10.342Z,977.76
2022-12-22T11:48:10.330Z,977.69
2022-12-22T11:49:10.322Z,977.66
2022-12-22T11:51:00.867Z,977.70
2022-12-22T11:51:11.969Z,977.67
2022-12-22T11:52:10.297Z,977.64
2022-12-22T11:53:10.273Z,977.65
2022-12-22T11:54:11.632Z,977.60
2022-12-22T11:55:10.238Z,977.50
2022-12-22T11:56:10.242Z,977.57
2022-12-22T11:57:10.252Z,977.64
2022-12-22T11:58:10.224Z,977.52
2022-12-22T11:59:10.198Z,977.56
2022-12-22T12:00:10.258Z,977.66
2022-12-22T12:01:17.954Z,977.58
2022-12-22T12:02:11.409Z,977.69
2022-12-22T12:03:10.386Z,977.60
2022-12-22T12:04:10.228Z,977.63
2022-12-22T12:05:10.122Z,977.69
2022-12-22T12:06:10.133Z,977.67
2022-12-22T12:07:10.123Z,977.80
2022-12-22T12:08:10.104Z,977.63
2022-12-22T12:09:10.093Z,977.73
2022-12-22T12:10:10.104Z,977.69
2022-12-22T12:11:10.076Z,977.56
2022-12-22T12:12:10.051Z,977.59
2022-12-22T12:13:10.055Z,977.73
2022-12-22T12:14:10.033Z,977.72
2022-12-22T12:15:10.016Z,977.70
2022-12-22T12:16:10.069Z,977.78
2022-12-22T12:17:09.994Z,977.82
2022-12-22T12:18:10.035Z,977.78
2022-12-22T12:19:09.974Z,977.87
2022-12-22T12:20:09.980Z,977.72
2022-12-22T12:21:09.974Z,977.65
2022-12-22T12:22:09.996Z,977.72
2022-12-22T12:23:09.957Z,977.82
2022-12-22T12:24:09.974Z,977.86
2022-12-22T12:25:09.915Z,977.86
2022-12-22T12:26:09.917Z,977.79
2022-12-22T12:27:09.888Z,977.86
2022-12-22T12:28:09.911Z,977.86
2022-12-22T12:29:09.878Z,977.75